sensor_id;sensor_type;location;lat;lon;timestamp;P1;durP1;ratioP1;P2;durP2;ratioP2
64903;SDS011;51401;48.882;12.598;2022-09-17T00:01:47;3.10;;;2.30;;
64903;SDS011;51401;48.882;12.598;2022-09-17T00:04:12;2.70;;;2.13;;
64903;SDS011;51401;48.882;12.598;2022-09-17T00:06:37;3.20;;;1.98;;
64903;SDS011;51401;48.882;12.598;2022-09-17T00:09:03;3.03;;;1.75;;
64903;SDS011;51401;48.882;12.598;2022-09-17T00:11:31;3.08;;;2.20;;
64903;SDS011;51401;48.882;12.598;2022-09-17T00:13:59;2.63;;;1.90;;
64903;SDS011;51401;48.882;12.598;2022-09-17T00:16:27;3.28;;;1.73;;
64903;SDS011;51401;48.882;12.598;2022-09-17T00:18:56;2.50;;;1.70;;
64903;SDS011;51401;48.882;12.598;2022-09-17T00:21:22;1.77;;;1.67;;
64903;SDS011;51401;48.882;12.598;2022-09-17T00:23:51;2.97;;;1.95;;
64903;SDS011;51401;48.882;12.598;2022-09-17T00:26:18;2.05;;;1.85;;
64903;SDS011;51401;48.882;12.598;2022-09-17T00:28:43;2.07;;;1.67;;
64903;SDS011;51401;48.882;12.598;2022-09-17T00:31:12;2.25;;;1.85;;
64903;SDS011;51401;48.882;12.598;2022-09-17T00:33:37;3.80;;;1.98;;
64903;SDS011;51401;48.882;12.598;2022-09-17T00:36:03;1.95;;;1.70;;
64903;SDS011;51401;48.882;12.598;2022-09-17T00:38:29;2.20;;;2.00;;
64903;SDS011;51401;48.882;12.598;2022-09-17T00:40:54;2.42;;;1.85;;
64903;SDS011;51401;48.882;12.598;2022-09-17T00:51:38;2.63;;;2.10;;
64903;SDS011;51401;48.882;12.598;2022-09-17T00:54:08;2.38;;;1.95;;
64903;SDS011;51401;48.882;12.598;2022-09-17T00:56:36;2.45;;;2.15;;
64903;SDS011;51401;48.882;12.598;2022-09-17T00:59:04;3.92;;;2.10;;
64903;SDS011;51401;48.882;12.598;2022-09-17T01:01:31;2.40;;;1.95;;
64903;SDS011;51401;48.882;12.598;2022-09-17T01:03:57;2.10;;;1.80;;
64903;SDS011;51401;48.882;12.598;2022-09-17T01:06:32;2.38;;;2.05;;
64903;SDS011;51401;48.882;12.598;2022-09-17T01:17:16;2.35;;;1.65;;
64903;SDS011;51401;48.882;12.598;2022-09-17T01:22:52;2.67;;;2.13;;
64903;SDS011;51401;48.882;12.598;2022-09-17T01:25:50;2.80;;;1.98;;
64903;SDS011;51401;48.882;12.598;2022-09-17T01:28:45;2.00;;;1.60;;
64903;SDS011;51401;48.882;12.598;2022-09-17T01:39:55;1.70;;;1.60;;
64903;SDS011;51401;48.882;12.598;2022-09-17T01:42:44;2.80;;;1.70;;
64903;SDS011;51401;48.882;12.598;2022-09-17T01:45:31;1.90;;;1.70;;
64903;SDS011;51401;48.882;12.598;2022-09-17T01:48:16;2.00;;;1.70;;
64903;SDS011;51401;48.882;12.598;2022-09-17T01:53:34;2.13;;;1.80;;
64903;SDS011;51401;48.882;12.598;2022-09-17T01:56:05;3.03;;;1.98;;
64903;SDS011;51401;48.882;12.598;2022-09-17T01:58:35;3.38;;;1.73;;
64903;SDS011;51401;48.882;12.598;2022-09-17T02:01:07;2.83;;;2.22;;
64903;SDS011;51401;48.882;12.598;2022-09-17T02:03:41;2.65;;;1.98;;
64903;SDS011;51401;48.882;12.598;2022-09-17T02:06:16;2.33;;;2.03;;
64903;SDS011;51401;48.882;12.598;2022-09-17T02:08:48;2.45;;;1.95;;
64903;SDS011;51401;48.882;12.598;2022-09-17T02:11:17;3.33;;;1.70;;
64903;SDS011;51401;48.882;12.598;2022-09-17T02:13:47;2.30;;;2.10;;
64903;SDS011;51401;48.882;12.598;2022-09-17T02:16:20;2.60;;;2.00;;
64903;SDS011;51401;48.882;12.598;2022-09-17T02:22:05;3.30;;;1.92;;
64903;SDS011;51401;48.882;12.598;2022-09-17T02:27:01;5.13;;;1.95;;
64903;SDS011;51401;48.882;12.598;2022-09-17T02:29:41;4.72;;;2.22;;
64903;SDS011;51401;48.882;12.598;2022-09-17T02:32:08;3.90;;;2.67;;
64903;SDS011;51401;48.882;12.598;2022-09-17T02:34:34;2.72;;;1.90;;
64903;SDS011;51401;48.882;12.598;2022-09-17T02:37:00;3.22;;;2.25;;
64903;SDS011;51401;48.882;12.598;2022-09-17T02:39:27;2.30;;;2.00;;
64903;SDS011;51401;48.882;12.598;2022-09-17T02:44:39;2.10;;;1.90;;
64903;SDS011;51401;48.882;12.598;2022-09-17T02:49:58;2.22;;;1.55;;
64903;SDS011;51401;48.882;12.598;2022-09-17T02:55:17;2.47;;;1.70;;
64903;SDS011;51401;48.882;12.598;2022-09-17T03:00:40;2.17;;;1.63;;
64903;SDS011;51401;48.882;12.598;2022-09-17T03:05:38;2.17;;;1.98;;
64903;SDS011;51401;48.882;12.598;2022-09-17T03:08:06;2.47;;;1.95;;
64903;SDS011;51401;48.882;12.598;2022-09-17T03:10:33;3.30;;;2.08;;
64903;SDS011;51401;48.882;12.598;2022-09-17T03:12:59;2.40;;;1.88;;
64903;SDS011;51401;48.882;12.598;2022-09-17T03:15:24;6.57;;;2.30;;
64903;SDS011;51401;48.882;12.598;2022-09-17T03:17:49;3.22;;;2.22;;
64903;SDS011;51401;48.882;12.598;2022-09-17T03:20:15;3.05;;;2.22;;
64903;SDS011;51401;48.882;12.598;2022-09-17T03:22:41;3.15;;;1.95;;
64903;SDS011;51401;48.882;12.598;2022-09-17T03:25:06;3.85;;;2.25;;
64903;SDS011;51401;48.882;12.598;2022-09-17T03:27:32;2.55;;;1.83;;
64903;SDS011;51401;48.882;12.598;2022-09-17T03:29:57;2.67;;;1.90;;
64903;SDS011;51401;48.882;12.598;2022-09-17T03:32:23;3.78;;;1.92;;
64903;SDS011;51401;48.882;12.598;2022-09-17T03:34:49;2.70;;;2.28;;
64903;SDS011;51401;48.882;12.598;2022-09-17T03:37:14;3.20;;;2.30;;
64903;SDS011;51401;48.882;12.598;2022-09-17T03:39:39;2.65;;;1.88;;
64903;SDS011;51401;48.882;12.598;2022-09-17T03:42:05;2.33;;;1.95;;
64903;SDS011;51401;48.882;12.598;2022-09-17T03:44:30;2.95;;;2.30;;
64903;SDS011;51401;48.882;12.598;2022-09-17T03:46:55;2.65;;;2.00;;
64903;SDS011;51401;48.882;12.598;2022-09-17T03:49:21;3.30;;;1.80;;
64903;SDS011;51401;48.882;12.598;2022-09-17T03:51:47;3.55;;;1.95;;
64903;SDS011;51401;48.882;12.598;2022-09-17T03:54:13;2.97;;;2.15;;
64903;SDS011;51401;48.882;12.598;2022-09-17T03:56:38;2.80;;;2.33;;
64903;SDS011;51401;48.882;12.598;2022-09-17T03:59:03;3.47;;;2.17;;
64903;SDS011;51401;48.882;12.598;2022-09-17T04:01:29;3.78;;;2.17;;
64903;SDS011;51401;48.882;12.598;2022-09-17T04:03:54;2.38;;;1.92;;
64903;SDS011;51401;48.882;12.598;2022-09-17T04:06:20;2.50;;;2.13;;
64903;SDS011;51401;48.882;12.598;2022-09-17T04:08:45;4.63;;;2.15;;
64903;SDS011;51401;48.882;12.598;2022-09-17T04:11:10;3.70;;;2.17;;
64903;SDS011;51401;48.882;12.598;2022-09-17T04:13:36;5.05;;;2.22;;
64903;SDS011;51401;48.882;12.598;2022-09-17T04:16:01;2.28;;;1.60;;
64903;SDS011;51401;48.882;12.598;2022-09-17T04:18:27;4.00;;;2.00;;
64903;SDS011;51401;48.882;12.598;2022-09-17T04:20:52;2.55;;;1.80;;
64903;SDS011;51401;48.882;12.598;2022-09-17T04:23:17;2.78;;;1.90;;
64903;SDS011;51401;48.882;12.598;2022-09-17T04:25:43;2.35;;;1.88;;
64903;SDS011;51401;48.882;12.598;2022-09-17T04:28:08;2.58;;;2.15;;
64903;SDS011;51401;48.882;12.598;2022-09-17T04:30:34;3.17;;;1.90;;
64903;SDS011;51401;48.882;12.598;2022-09-17T04:32:59;4.93;;;2.47;;
64903;SDS011;51401;48.882;12.598;2022-09-17T04:35:25;2.97;;;1.70;;
64903;SDS011;51401;48.882;12.598;2022-09-17T04:37:51;3.08;;;1.67;;
64903;SDS011;51401;48.882;12.598;2022-09-17T04:40:17;4.38;;;1.90;;
64903;SDS011;51401;48.882;12.598;2022-09-17T04:42:43;3.20;;;1.88;;
64903;SDS011;51401;48.882;12.598;2022-09-17T04:45:09;8.48;;;2.10;;
64903;SDS011;51401;48.882;12.598;2022-09-17T04:47:36;4.20;;;2.00;;
64903;SDS011;51401;48.882;12.598;2022-09-17T04:50:03;3.03;;;2.00;;
64903;SDS011;51401;48.882;12.598;2022-09-17T04:52:28;3.47;;;2.10;;
64903;SDS011;51401;48.882;12.598;2022-09-17T04:54:53;3.67;;;1.88;;
64903;SDS011;51401;48.882;12.598;2022-09-17T04:57:19;3.43;;;2.10;;
64903;SDS011;51401;48.882;12.598;2022-09-17T04:59:44;2.83;;;2.08;;
64903;SDS011;51401;48.882;12.598;2022-09-17T05:02:09;3.83;;;2.53;;
64903;SDS011;51401;48.882;12.598;2022-09-17T05:04:35;4.18;;;2.20;;
64903;SDS011;51401;48.882;12.598;2022-09-17T05:07:01;3.22;;;2.47;;
64903;SDS011;51401;48.882;12.598;2022-09-17T05:09:26;3.25;;;2.47;;
64903;SDS011;51401;48.882;12.598;2022-09-17T05:11:52;3.58;;;2.97;;
64903;SDS011;51401;48.882;12.598;2022-09-17T05:14:17;4.25;;;2.38;;
64903;SDS011;51401;48.882;12.598;2022-09-17T05:16:42;4.13;;;2.20;;
64903;SDS011;51401;48.882;12.598;2022-09-17T05:19:07;4.23;;;2.43;;
64903;SDS011;51401;48.882;12.598;2022-09-17T05:21:33;3.47;;;2.70;;
64903;SDS011;51401;48.882;12.598;2022-09-17T05:23:58;5.43;;;2.40;;
64903;SDS011;51401;48.882;12.598;2022-09-17T05:26:25;3.03;;;2.33;;
64903;SDS011;51401;48.882;12.598;2022-09-17T05:28:50;4.43;;;2.75;;
64903;SDS011;51401;48.882;12.598;2022-09-17T05:31:15;4.05;;;2.53;;
64903;SDS011;51401;48.882;12.598;2022-09-17T05:33:41;5.70;;;2.58;;
64903;SDS011;51401;48.882;12.598;2022-09-17T05:36:06;5.65;;;3.03;;
64903;SDS011;51401;48.882;12.598;2022-09-17T05:38:32;4.97;;;3.38;;
64903;SDS011;51401;48.882;12.598;2022-09-17T05:40:57;6.35;;;3.08;;
64903;SDS011;51401;48.882;12.598;2022-09-17T05:43:22;3.72;;;3.10;;
64903;SDS011;51401;48.882;12.598;2022-09-17T05:45:48;5.88;;;2.75;;
64903;SDS011;51401;48.882;12.598;2022-09-17T05:48:13;4.90;;;3.10;;
64903;SDS011;51401;48.882;12.598;2022-09-17T05:50:39;6.38;;;2.92;;
64903;SDS011;51401;48.882;12.598;2022-09-17T05:53:06;4.30;;;3.10;;
64903;SDS011;51401;48.882;12.598;2022-09-17T05:55:33;5.15;;;3.13;;
64903;SDS011;51401;48.882;12.598;2022-09-17T05:58:11;5.45;;;3.00;;
64903;SDS011;51401;48.882;12.598;2022-09-17T06:00:38;5.05;;;2.83;;
64903;SDS011;51401;48.882;12.598;2022-09-17T06:03:05;5.63;;;2.63;;
64903;SDS011;51401;48.882;12.598;2022-09-17T06:05:30;4.75;;;2.55;;
64903;SDS011;51401;48.882;12.598;2022-09-17T06:07:55;4.32;;;3.05;;
64903;SDS011;51401;48.882;12.598;2022-09-17T06:10:21;6.05;;;2.80;;
64903;SDS011;51401;48.882;12.598;2022-09-17T06:12:46;4.05;;;2.65;;
64903;SDS011;51401;48.882;12.598;2022-09-17T06:15:11;3.15;;;2.80;;
64903;SDS011;51401;48.882;12.598;2022-09-17T06:17:39;2.78;;;2.42;;
64903;SDS011;51401;48.882;12.598;2022-09-17T06:20:04;7.07;;;2.83;;
64903;SDS011;51401;48.882;12.598;2022-09-17T06:22:30;3.92;;;2.65;;
64903;SDS011;51401;48.882;12.598;2022-09-17T06:24:56;5.03;;;2.75;;
64903;SDS011;51401;48.882;12.598;2022-09-17T06:27:21;4.03;;;2.33;;
64903;SDS011;51401;48.882;12.598;2022-09-17T06:29:47;5.22;;;2.10;;
64903;SDS011;51401;48.882;12.598;2022-09-17T06:32:12;3.30;;;2.65;;
64903;SDS011;51401;48.882;12.598;2022-09-17T06:34:39;3.17;;;2.00;;
64903;SDS011;51401;48.882;12.598;2022-09-17T06:37:05;5.15;;;2.35;;
64903;SDS011;51401;48.882;12.598;2022-09-17T06:39:30;5.75;;;2.20;;
64903;SDS011;51401;48.882;12.598;2022-09-17T06:41:55;5.70;;;2.55;;
64903;SDS011;51401;48.882;12.598;2022-09-17T06:44:20;3.30;;;1.80;;
64903;SDS011;51401;48.882;12.598;2022-09-17T06:46:48;3.58;;;2.38;;
64903;SDS011;51401;48.882;12.598;2022-09-17T06:49:13;2.90;;;1.88;;
64903;SDS011;51401;48.882;12.598;2022-09-17T06:51:47;2.58;;;1.65;;
64903;SDS011;51401;48.882;12.598;2022-09-17T06:54:13;3.38;;;1.70;;
64903;SDS011;51401;48.882;12.598;2022-09-17T06:56:38;3.95;;;2.10;;
64903;SDS011;51401;48.882;12.598;2022-09-17T06:59:04;4.13;;;1.83;;
64903;SDS011;51401;48.882;12.598;2022-09-17T07:01:29;2.63;;;2.07;;
64903;SDS011;51401;48.882;12.598;2022-09-17T07:03:54;3.80;;;1.93;;
64903;SDS011;51401;48.882;12.598;2022-09-17T07:06:19;2.50;;;2.10;;
64903;SDS011;51401;48.882;12.598;2022-09-17T07:08:45;5.78;;;2.20;;
64903;SDS011;51401;48.882;12.598;2022-09-17T07:11:11;8.43;;;4.35;;
64903;SDS011;51401;48.882;12.598;2022-09-17T07:13:37;3.30;;;1.70;;
64903;SDS011;51401;48.882;12.598;2022-09-17T07:16:03;4.00;;;1.73;;
64903;SDS011;51401;48.882;12.598;2022-09-17T07:18:29;3.38;;;1.67;;
64903;SDS011;51401;48.882;12.598;2022-09-17T07:20:55;4.90;;;2.05;;
64903;SDS011;51401;48.882;12.598;2022-09-17T07:23:22;3.63;;;1.70;;
64903;SDS011;51401;48.882;12.598;2022-09-17T07:25:55;2.70;;;2.00;;
64903;SDS011;51401;48.882;12.598;2022-09-17T07:28:22;3.10;;;1.83;;
64903;SDS011;51401;48.882;12.598;2022-09-17T07:30:48;5.60;;;1.77;;
64903;SDS011;51401;48.882;12.598;2022-09-17T07:33:15;3.63;;;1.75;;
64903;SDS011;51401;48.882;12.598;2022-09-17T07:35:41;3.28;;;1.60;;
64903;SDS011;51401;48.882;12.598;2022-09-17T07:38:07;8.80;;;1.75;;
64903;SDS011;51401;48.882;12.598;2022-09-17T07:40:32;3.63;;;1.93;;
64903;SDS011;51401;48.882;12.598;2022-09-17T07:42:57;2.90;;;1.92;;
64903;SDS011;51401;48.882;12.598;2022-09-17T07:45:23;3.83;;;1.75;;
64903;SDS011;51401;48.882;12.598;2022-09-17T07:47:48;4.47;;;1.63;;
64903;SDS011;51401;48.882;12.598;2022-09-17T07:50:14;3.13;;;1.60;;
64903;SDS011;51401;48.882;12.598;2022-09-17T07:52:44;3.78;;;1.55;;
64903;SDS011;51401;48.882;12.598;2022-09-17T07:55:11;3.25;;;1.60;;
64903;SDS011;51401;48.882;12.598;2022-09-17T07:57:36;3.00;;;1.30;;
64903;SDS011;51401;48.882;12.598;2022-09-17T08:00:01;3.97;;;1.60;;
64903;SDS011;51401;48.882;12.598;2022-09-17T08:02:27;2.92;;;1.48;;
64903;SDS011;51401;48.882;12.598;2022-09-17T08:04:53;2.37;;;1.77;;
64903;SDS011;51401;48.882;12.598;2022-09-17T08:07:18;2.58;;;1.50;;
64903;SDS011;51401;48.882;12.598;2022-09-17T08:09:44;3.92;;;1.83;;
64903;SDS011;51401;48.882;12.598;2022-09-17T08:12:09;7.17;;;2.10;;
64903;SDS011;51401;48.882;12.598;2022-09-17T08:14:34;2.83;;;1.53;;
64903;SDS011;51401;48.882;12.598;2022-09-17T08:16:59;2.40;;;1.60;;
64903;SDS011;51401;48.882;12.598;2022-09-17T08:19:25;2.73;;;1.40;;
64903;SDS011;51401;48.882;12.598;2022-09-17T08:21:52;3.50;;;1.70;;
64903;SDS011;51401;48.882;12.598;2022-09-17T08:24:17;3.60;;;1.33;;
64903;SDS011;51401;48.882;12.598;2022-09-17T08:26:43;2.15;;;1.30;;
64903;SDS011;51401;48.882;12.598;2022-09-17T08:29:08;3.25;;;1.52;;
64903;SDS011;51401;48.882;12.598;2022-09-17T08:31:35;2.30;;;1.40;;
64903;SDS011;51401;48.882;12.598;2022-09-17T08:34:00;4.43;;;1.20;;
64903;SDS011;51401;48.882;12.598;2022-09-17T08:36:26;2.78;;;1.48;;
64903;SDS011;51401;48.882;12.598;2022-09-17T08:38:52;1.58;;;1.20;;
64903;SDS011;51401;48.882;12.598;2022-09-17T08:41:25;1.23;;;1.02;;
64903;SDS011;51401;48.882;12.598;2022-09-17T08:44:06;1.40;;;0.88;;
64903;SDS011;51401;48.882;12.598;2022-09-17T08:46:53;2.55;;;0.98;;
64903;SDS011;51401;48.882;12.598;2022-09-17T08:54:49;2.10;;;0.90;;
64903;SDS011;51401;48.882;12.598;2022-09-17T08:57:47;2.88;;;1.08;;
64903;SDS011;51401;48.882;12.598;2022-09-17T09:00:38;1.65;;;0.70;;
64903;SDS011;51401;48.882;12.598;2022-09-17T09:03:15;1.48;;;0.80;;
64903;SDS011;51401;48.882;12.598;2022-09-17T09:05:52;1.10;;;0.85;;
64903;SDS011;51401;48.882;12.598;2022-09-17T09:08:21;0.63;;;0.60;;
64903;SDS011;51401;48.882;12.598;2022-09-17T09:10:52;1.23;;;0.70;;
64903;SDS011;51401;48.882;12.598;2022-09-17T09:13:22;0.73;;;0.70;;
64903;SDS011;51401;48.882;12.598;2022-09-17T09:15:53;2.93;;;1.00;;
64903;SDS011;51401;48.882;12.598;2022-09-17T09:18:30;0.80;;;0.75;;
64903;SDS011;51401;48.882;12.598;2022-09-17T09:26:22;0.77;;;0.60;;
64903;SDS011;51401;48.882;12.598;2022-09-17T09:34:10;1.42;;;1.00;;
64903;SDS011;51401;48.882;12.598;2022-09-17T09:36:36;1.65;;;0.80;;
64903;SDS011;51401;48.882;12.598;2022-09-17T09:39:05;0.93;;;0.80;;
64903;SDS011;51401;48.882;12.598;2022-09-17T09:41:54;1.83;;;0.70;;
64903;SDS011;51401;48.882;12.598;2022-09-17T09:44:28;1.40;;;0.68;;
64903;SDS011;51401;48.882;12.598;2022-09-17T09:47:01;1.02;;;0.73;;
64903;SDS011;51401;48.882;12.598;2022-09-17T09:52:22;1.63;;;0.77;;
64903;SDS011;51401;48.882;12.598;2022-09-17T09:58:05;2.15;;;0.88;;
64903;SDS011;51401;48.882;12.598;2022-09-17T10:00:41;2.47;;;0.68;;
64903;SDS011;51401;48.882;12.598;2022-09-17T10:03:26;1.25;;;0.60;;
64903;SDS011;51401;48.882;12.598;2022-09-17T10:05:57;0.82;;;0.80;;
64903;SDS011;51401;48.882;12.598;2022-09-17T10:08:25;2.75;;;1.05;;
64903;SDS011;51401;48.882;12.598;2022-09-17T10:11:37;1.77;;;1.15;;
64903;SDS011;51401;48.882;12.598;2022-09-17T10:13:38;1.67;;;1.30;;
64903;SDS011;51401;48.882;12.598;2022-09-17T10:16:17;2.13;;;1.20;;
64903;SDS011;51401;48.882;12.598;2022-09-17T10:18:44;1.10;;;0.80;;
64903;SDS011;51401;48.882;12.598;2022-09-17T10:21:17;2.42;;;1.88;;
64903;SDS011;51401;48.882;12.598;2022-09-17T10:23:43;3.35;;;1.75;;
64903;SDS011;51401;48.882;12.598;2022-09-17T10:26:19;1.02;;;0.90;;
64903;SDS011;51401;48.882;12.598;2022-09-17T10:28:51;2.10;;;0.80;;
64903;SDS011;51401;48.882;12.598;2022-09-17T10:31:18;2.72;;;1.48;;
64903;SDS011;51401;48.882;12.598;2022-09-17T10:33:57;2.28;;;1.30;;
64903;SDS011;51401;48.882;12.598;2022-09-17T10:39:19;2.88;;;1.30;;
64903;SDS011;51401;48.882;12.598;2022-09-17T10:41:54;1.40;;;0.93;;
64903;SDS011;51401;48.882;12.598;2022-09-17T10:44:38;2.78;;;1.10;;
64903;SDS011;51401;48.882;12.598;2022-09-17T10:49:55;1.00;;;0.90;;
64903;SDS011;51401;48.882;12.598;2022-09-17T10:52:34;1.42;;;1.23;;
64903;SDS011;51401;48.882;12.598;2022-09-17T11:00:18;2.08;;;1.25;;
64903;SDS011;51401;48.882;12.598;2022-09-17T11:03:01;2.00;;;1.45;;
64903;SDS011;51401;48.882;12.598;2022-09-17T11:11:20;1.88;;;1.20;;
64903;SDS011;51401;48.882;12.598;2022-09-17T11:16:45;2.90;;;1.48;;
64903;SDS011;51401;48.882;12.598;2022-09-17T11:21:56;3.78;;;1.83;;
64903;SDS011;51401;48.882;12.598;2022-09-17T11:24:54;3.00;;;1.73;;
64903;SDS011;51401;48.882;12.598;2022-09-17T11:27:43;1.77;;;1.40;;
64903;SDS011;51401;48.882;12.598;2022-09-17T11:30:17;3.75;;;1.50;;
64903;SDS011;51401;48.882;12.598;2022-09-17T11:32:54;3.88;;;1.85;;
64903;SDS011;51401;48.882;12.598;2022-09-17T11:35:34;4.70;;;2.13;;
64903;SDS011;51401;48.882;12.598;2022-09-17T11:40:56;2.90;;;2.40;;
64903;SDS011;51401;48.882;12.598;2022-09-17T11:43:27;4.28;;;2.08;;
64903;SDS011;51401;48.882;12.598;2022-09-17T11:46:00;5.30;;;2.22;;
64903;SDS011;51401;48.882;12.598;2022-09-17T11:48:33;3.78;;;1.65;;
64903;SDS011;51401;48.882;12.598;2022-09-17T11:51:47;3.28;;;1.83;;
64903;SDS011;51401;48.882;12.598;2022-09-17T12:04:01;3.50;;;1.60;;
64903;SDS011;51401;48.882;12.598;2022-09-17T12:06:46;5.50;;;1.65;;
64903;SDS011;51401;48.882;12.598;2022-09-17T12:09:31;5.43;;;1.73;;
64903;SDS011;51401;48.882;12.598;2022-09-17T12:14:42;4.97;;;1.90;;
64903;SDS011;51401;48.882;12.598;2022-09-17T12:17:14;4.38;;;1.55;;
64903;SDS011;51401;48.882;12.598;2022-09-17T12:19:46;3.28;;;1.90;;
64903;SDS011;51401;48.882;12.598;2022-09-17T12:22:25;2.97;;;1.73;;
64903;SDS011;51401;48.882;12.598;2022-09-17T12:24:54;4.55;;;1.90;;
64903;SDS011;51401;48.882;12.598;2022-09-17T12:35:26;6.65;;;1.77;;
64903;SDS011;51401;48.882;12.598;2022-09-17T12:43:48;4.15;;;1.70;;
64903;SDS011;51401;48.882;12.598;2022-09-17T13:00:09;4.88;;;1.33;;
64903;SDS011;51401;48.882;12.598;2022-09-17T13:02:41;4.03;;;2.60;;
64903;SDS011;51401;48.882;12.598;2022-09-17T13:10:40;2.38;;;1.38;;
64903;SDS011;51401;48.882;12.598;2022-09-17T13:18:57;4.25;;;1.67;;
64903;SDS011;51401;48.882;12.598;2022-09-17T13:23:58;2.75;;;1.70;;
64903;SDS011;51401;48.882;12.598;2022-09-17T13:26:34;4.82;;;1.70;;
64903;SDS011;51401;48.882;12.598;2022-09-17T13:29:01;4.38;;;1.95;;
64903;SDS011;51401;48.882;12.598;2022-09-17T13:33:59;5.82;;;2.05;;
64903;SDS011;51401;48.882;12.598;2022-09-17T13:36:42;3.95;;;2.05;;
64903;SDS011;51401;48.882;12.598;2022-09-17T13:39:10;3.28;;;1.50;;
64903;SDS011;51401;48.882;12.598;2022-09-17T13:42:04;3.42;;;1.73;;
64903;SDS011;51401;48.882;12.598;2022-09-17T13:44:34;7.35;;;2.17;;
64903;SDS011;51401;48.882;12.598;2022-09-17T13:47:09;3.55;;;1.58;;
64903;SDS011;51401;48.882;12.598;2022-09-17T13:49:44;4.70;;;1.85;;
64903;SDS011;51401;48.882;12.598;2022-09-17T13:52:13;2.58;;;1.70;;
64903;SDS011;51401;48.882;12.598;2022-09-17T13:54:52;3.58;;;2.03;;
64903;SDS011;51401;48.882;12.598;2022-09-17T13:57:17;4.50;;;2.13;;
64903;SDS011;51401;48.882;12.598;2022-09-17T13:59:50;5.45;;;1.65;;
64903;SDS011;51401;48.882;12.598;2022-09-17T14:07:26;2.25;;;1.27;;
64903;SDS011;51401;48.882;12.598;2022-09-17T14:09:56;1.60;;;1.10;;
64903;SDS011;51401;48.882;12.598;2022-09-17T14:15:29;2.58;;;1.15;;
64903;SDS011;51401;48.882;12.598;2022-09-17T14:20:52;2.75;;;1.27;;
64903;SDS011;51401;48.882;12.598;2022-09-17T14:23:19;2.80;;;1.58;;
64903;SDS011;51401;48.882;12.598;2022-09-17T14:25:50;3.65;;;1.35;;
64903;SDS011;51401;48.882;12.598;2022-09-17T14:31:05;3.28;;;1.10;;
64903;SDS011;51401;48.882;12.598;2022-09-17T14:33:36;2.13;;;1.38;;
64903;SDS011;51401;48.882;12.598;2022-09-17T14:36:13;2.38;;;1.13;;
64903;SDS011;51401;48.882;12.598;2022-09-17T14:38:52;1.70;;;1.05;;
64903;SDS011;51401;48.882;12.598;2022-09-17T14:41:20;9.43;;;1.60;;
64903;SDS011;51401;48.882;12.598;2022-09-17T14:43:55;1.80;;;1.00;;
64903;SDS011;51401;48.882;12.598;2022-09-17T14:46:28;8.25;;;1.60;;
64903;SDS011;51401;48.882;12.598;2022-09-17T14:49:29;3.47;;;0.93;;
64903;SDS011;51401;48.882;12.598;2022-09-17T14:52:25;2.00;;;1.10;;
64903;SDS011;51401;48.882;12.598;2022-09-17T14:57:35;2.65;;;0.65;;
64903;SDS011;51401;48.882;12.598;2022-09-17T15:00:02;1.10;;;0.80;;
64903;SDS011;51401;48.882;12.598;2022-09-17T15:02:39;4.00;;;1.27;;
64903;SDS011;51401;48.882;12.598;2022-09-17T15:05:14;1.60;;;0.82;;
64903;SDS011;51401;48.882;12.598;2022-09-17T15:07:42;1.65;;;0.82;;
64903;SDS011;51401;48.882;12.598;2022-09-17T15:10:10;1.58;;;0.98;;
64903;SDS011;51401;48.882;12.598;2022-09-17T15:12:38;1.83;;;0.98;;
64903;SDS011;51401;48.882;12.598;2022-09-17T15:15:04;1.45;;;1.02;;
64903;SDS011;51401;48.882;12.598;2022-09-17T15:17:29;1.70;;;1.20;;
64903;SDS011;51401;48.882;12.598;2022-09-17T15:19:57;3.53;;;1.35;;
64903;SDS011;51401;48.882;12.598;2022-09-17T15:22:27;3.35;;;1.30;;
64903;SDS011;51401;48.882;12.598;2022-09-17T15:25:04;2.45;;;1.25;;
64903;SDS011;51401;48.882;12.598;2022-09-17T15:30:14;2.88;;;1.20;;
64903;SDS011;51401;48.882;12.598;2022-09-17T15:32:48;2.75;;;1.27;;
64903;SDS011;51401;48.882;12.598;2022-09-17T15:35:16;2.80;;;1.20;;
64903;SDS011;51401;48.882;12.598;2022-09-17T15:40:13;2.88;;;1.33;;
64903;SDS011;51401;48.882;12.598;2022-09-17T15:42:48;1.17;;;1.00;;
64903;SDS011;51401;48.882;12.598;2022-09-17T15:47:55;2.85;;;1.55;;
64903;SDS011;51401;48.882;12.598;2022-09-17T15:50:25;3.60;;;1.67;;
64903;SDS011;51401;48.882;12.598;2022-09-17T15:55:30;2.58;;;1.35;;
64903;SDS011;51401;48.882;12.598;2022-09-17T15:58:17;2.88;;;1.73;;
64903;SDS011;51401;48.882;12.598;2022-09-17T16:06:16;3.70;;;1.10;;
64903;SDS011;51401;48.882;12.598;2022-09-17T16:11:56;1.38;;;0.80;;
64903;SDS011;51401;48.882;12.598;2022-09-17T16:14:22;3.93;;;0.70;;
64903;SDS011;51401;48.882;12.598;2022-09-17T16:16:47;1.20;;;0.90;;
64903;SDS011;51401;48.882;12.598;2022-09-17T16:19:12;0.98;;;0.77;;
64903;SDS011;51401;48.882;12.598;2022-09-17T16:21:37;3.37;;;1.20;;
64903;SDS011;51401;48.882;12.598;2022-09-17T16:24:03;2.60;;;1.23;;
64903;SDS011;51401;48.882;12.598;2022-09-17T16:26:29;1.00;;;0.90;;
64903;SDS011;51401;48.882;12.598;2022-09-17T16:29:04;2.60;;;1.20;;
64903;SDS011;51401;48.882;12.598;2022-09-17T16:31:32;3.30;;;1.30;;
64903;SDS011;51401;48.882;12.598;2022-09-17T16:33:58;1.52;;;1.15;;
64903;SDS011;51401;48.882;12.598;2022-09-17T16:36:23;3.28;;;1.83;;
64903;SDS011;51401;48.882;12.598;2022-09-17T16:38:48;2.00;;;1.27;;
64903;SDS011;51401;48.882;12.598;2022-09-17T16:41:14;1.33;;;1.07;;
64903;SDS011;51401;48.882;12.598;2022-09-17T16:43:39;2.00;;;1.10;;
64903;SDS011;51401;48.882;12.598;2022-09-17T16:46:08;2.90;;;1.20;;
64903;SDS011;51401;48.882;12.598;2022-09-17T16:51:05;6.75;;;1.45;;
64903;SDS011;51401;48.882;12.598;2022-09-17T16:53:35;1.55;;;1.00;;
64903;SDS011;51401;48.882;12.598;2022-09-17T16:56:00;1.02;;;0.88;;
64903;SDS011;51401;48.882;12.598;2022-09-17T16:58:26;2.65;;;1.48;;
64903;SDS011;51401;48.882;12.598;2022-09-17T17:00:51;2.90;;;1.20;;
64903;SDS011;51401;48.882;12.598;2022-09-17T17:03:16;2.25;;;1.20;;
64903;SDS011;51401;48.882;12.598;2022-09-17T17:05:42;1.55;;;0.98;;
64903;SDS011;51401;48.882;12.598;2022-09-17T17:08:10;1.20;;;0.90;;
64903;SDS011;51401;48.882;12.598;2022-09-17T17:10:38;2.10;;;1.10;;
64903;SDS011;51401;48.882;12.598;2022-09-17T17:13:04;2.47;;;1.25;;
64903;SDS011;51401;48.882;12.598;2022-09-17T17:15:29;1.50;;;0.73;;
64903;SDS011;51401;48.882;12.598;2022-09-17T17:17:55;1.42;;;1.00;;
64903;SDS011;51401;48.882;12.598;2022-09-17T17:20:21;2.30;;;0.95;;
64903;SDS011;51401;48.882;12.598;2022-09-17T17:22:47;1.25;;;0.82;;
64903;SDS011;51401;48.882;12.598;2022-09-17T17:25:15;1.75;;;1.08;;
64903;SDS011;51401;48.882;12.598;2022-09-17T17:27:41;1.42;;;1.00;;
64903;SDS011;51401;48.882;12.598;2022-09-17T17:30:07;1.52;;;0.90;;
64903;SDS011;51401;48.882;12.598;2022-09-17T17:32:33;2.05;;;1.10;;
64903;SDS011;51401;48.882;12.598;2022-09-17T17:35:00;1.23;;;0.90;;
64903;SDS011;51401;48.882;12.598;2022-09-17T17:37:26;2.15;;;1.05;;
64903;SDS011;51401;48.882;12.598;2022-09-17T17:39:51;1.67;;;1.00;;
64903;SDS011;51401;48.882;12.598;2022-09-17T17:42:18;1.60;;;1.10;;
64903;SDS011;51401;48.882;12.598;2022-09-17T17:44:43;2.83;;;1.40;;
64903;SDS011;51401;48.882;12.598;2022-09-17T17:47:08;2.85;;;1.20;;
64903;SDS011;51401;48.882;12.598;2022-09-17T17:49:33;2.27;;;1.50;;
64903;SDS011;51401;48.882;12.598;2022-09-17T17:51:59;2.17;;;1.53;;
64903;SDS011;51401;48.882;12.598;2022-09-17T17:54:24;1.58;;;1.23;;
64903;SDS011;51401;48.882;12.598;2022-09-17T17:56:51;2.22;;;1.38;;
64903;SDS011;51401;48.882;12.598;2022-09-17T17:59:17;1.85;;;1.15;;